createdAt,value
2023-03-03T00:00:02.836Z,1.50
2023-03-03T00:01:02.753Z,1.50
2023-03-03T00:02:03.301Z,1.50
2023-03-03T00:03:03.395Z,1.40
2023-03-03T00:04:03.366Z,1.40
2023-03-03T00:05:03.342Z,1.40
2023-03-03T00:06:03.256Z,1.40
2023-03-03T00:07:03.348Z,1.40
2023-03-03T00:08:03.397Z,1.40
2023-03-03T00:09:03.342Z,1.40
2023-03-03T00:10:03.417Z,1.40
2023-03-03T00:11:03.398Z,1.40
2023-03-03T00:12:03.338Z,1.40
2023-03-03T00:13:03.320Z,1.40
2023-03-03T00:14:03.287Z,1.40
2023-03-03T00:15:03.244Z,1.40
2023-03-03T00:16:03.279Z,1.40
2023-03-03T00:17:03.204Z,1.40
2023-03-03T00:18:03.152Z,1.40
2023-03-03T00:19:03.088Z,1.40
2023-03-03T00:20:03.030Z,1.40
2023-03-03T00:21:03.129Z,1.40
2023-03-03T00:22:03.126Z,1.40
2023-03-03T00:23:03.167Z,1.40
2023-03-03T00:24:03.134Z,1.40
2023-03-03T00:25:03.221Z,1.40
2023-03-03T00:26:03.190Z,1.30
2023-03-03T00:27:03.266Z,1.40
2023-03-03T00:28:03.224Z,1.30
2023-03-03T00:29:03.320Z,1.30
2023-03-03T00:30:03.352Z,1.30
2023-03-03T00:31:03.371Z,1.30
2023-03-03T00:32:03.265Z,1.30
2023-03-03T00:33:03.383Z,1.30
2023-03-03T00:34:03.356Z,1.30
2023-03-03T00:35:03.366Z,1.30
2023-03-03T00:36:03.259Z,1.30
2023-03-03T00:37:03.283Z,1.30
2023-03-03T00:38:03.245Z,1.30
2023-03-03T00:39:03.388Z,1.30
2023-03-03T00:40:03.393Z,1.30
2023-03-03T00:41:03.496Z,1.30
2023-03-03T00:42:03.373Z,1.30
2023-03-03T00:43:03.402Z,1.30
2023-03-03T00:44:03.503Z,1.30
2023-03-03T00:45:03.465Z,1.30
2023-03-03T00:46:03.659Z,1.30
2023-03-03T00:47:03.625Z,1.30
2023-03-03T00:48:03.595Z,1.30
2023-03-03T00:49:02.620Z,1.30
2023-03-03T00:50:03.618Z,1.30
2023-03-03T00:51:02.675Z,1.30
2023-03-03T00:52:02.734Z,1.30
2023-03-03T00:53:02.731Z,1.30
2023-03-03T00:54:02.765Z,1.30
2023-03-03T00:55:02.867Z,1.20
2023-03-03T00:56:02.922Z,1.20
2023-03-03T00:57:02.929Z,1.20
2023-03-03T00:58:02.910Z,1.20
2023-03-03T00:59:02.965Z,1.20
2023-03-03T01:00:02.885Z,1.20
2023-03-03T01:01:02.924Z,1.20
2023-03-03T01:02:02.896Z,1.20
2023-03-03T01:03:02.935Z,1.20
2023-03-03T01:04:02.891Z,1.20
2023-03-03T01:05:02.783Z,1.20
2023-03-03T01:06:02.919Z,1.20
2023-03-03T01:07:02.862Z,1.20
2023-03-03T01:08:02.827Z,1.20
2023-03-03T01:09:02.818Z,1.20
2023-03-03T01:10:02.905Z,1.10
2023-03-03T01:11:02.918Z,1.10
2023-03-03T01:12:02.987Z,1.20
2023-03-03T01:13:02.925Z,1.20
2023-03-03T01:14:03.021Z,1.20
2023-03-03T01:15:03.030Z,1.20
2023-03-03T01:16:02.955Z,1.10
2023-03-03T01:17:02.963Z,1.10
2023-03-03T01:18:02.974Z,1.20
2023-03-03T01:19:02.890Z,1.10
2023-03-03T01:20:02.802Z,1.10
2023-03-03T01:21:02.788Z,1.10
2023-03-03T01:22:02.766Z,1.10
2023-03-03T01:23:02.865Z,1.10
2023-03-03T01:24:02.863Z,1.10
2023-03-03T01:25:02.768Z,1.10
2023-03-03T01:26:02.759Z,1.10
2023-03-03T01:27:02.797Z,1.10
2023-03-03T01:28:02.905Z,1.00
2023-03-03T01:29:02.934Z,1.00
2023-03-03T01:30:03.016Z,1.00
2023-03-03T01:31:03.006Z,1.00
2023-03-03T01:32:02.965Z,1.00
2023-03-03T01:33:02.975Z,1.00
2023-03-03T01:34:02.900Z,1.00
2023-03-03T01:35:02.923Z,1.00
2023-03-03T01:36:02.909Z,1.00
2023-03-03T01:37:02.960Z,1.00
2023-03-03T01:38:02.875Z,1.00
2023-03-03T01:39:02.902Z,1.00
2023-03-03T01:40:02.883Z,1.00
2023-03-03T01:41:02.941Z,1.00
2023-03-03T01:42:03.000Z,1.00
2023-03-03T01:43:02.835Z,1.00
2023-03-03T01:44:02.835Z,0.90
2023-03-03T01:45:02.941Z,1.00
2023-03-03T01:46:02.875Z,1.00
2023-03-03T01:47:02.854Z,0.90
2023-03-03T01:48:02.892Z,0.90
2023-03-03T01:49:02.801Z,0.90
2023-03-03T01:50:02.778Z,0.90
2023-03-03T01:51:02.849Z,0.90
2023-03-03T01:52:02.974Z,0.90
2023-03-03T01:53:02.893Z,0.90
2023-03-03T01:54:02.955Z,0.90
2023-03-03T01:55:03.092Z,0.90
2023-03-03T01:56:03.149Z,0.90
2023-03-03T01:57:03.206Z,0.90
2023-03-03T01:58:03.250Z,0.90
2023-03-03T01:59:03.305Z,0.90
2023-03-03T02:00:03.238Z,0.90
2023-03-03T02:01:03.238Z,0.90
2023-03-03T02:02:03.223Z,0.90
2023-03-03T02:03:03.334Z,0.90
2023-03-03T02:04:03.261Z,0.90
2023-03-03T02:05:03.317Z,0.90
2023-03-03T02:06:03.370Z,0.90
2023-03-03T02:07:03.394Z,0.90
2023-03-03T02:08:03.458Z,0.90
2023-03-03T02:09:03.327Z,0.80
2023-03-03T02:10:03.324Z,0.90
2023-03-03T02:11:03.404Z,0.80
2023-03-03T02:12:03.415Z,0.80
2023-03-03T02:13:03.371Z,0.80
2023-03-03T02:14:03.428Z,0.80
2023-03-03T02:15:03.414Z,0.80
2023-03-03T02:16:03.432Z,0.80
2023-03-03T02:17:03.569Z,0.80
2023-03-03T02:18:03.614Z,0.80
2023-03-03T02:19:03.508Z,0.80
2023-03-03T02:20:03.559Z,0.80
2023-03-03T02:21:03.528Z,0.70
2023-03-03T02:22:03.549Z,0.70
2023-03-03T02:23:03.550Z,0.70
2023-03-03T02:24:03.544Z,0.70
2023-03-03T02:25:03.473Z,0.70
2023-03-03T02:26:03.460Z,0.70
2023-03-03T02:27:03.449Z,0.70
2023-03-03T02:28:03.489Z,0.60
2023-03-03T02:29:03.483Z,0.70
2023-03-03T02:30:03.550Z,0.60
2023-03-03T02:31:03.523Z,0.60
2023-03-03T02:32:03.671Z,0.60
2023-03-03T02:33:02.696Z,0.60
2023-03-03T02:34:02.669Z,0.60
2023-03-03T02:35:02.616Z,0.60
2023-03-03T02:36:03.566Z,0.60
2023-03-03T02:37:03.544Z,0.60
2023-03-03T02:38:03.533Z,0.60
2023-03-03T02:39:03.576Z,0.60
2023-03-03T02:40:02.648Z,0.60
2023-03-03T02:41:02.682Z,0.60
2023-03-03T02:42:02.724Z,0.60
2023-03-03T02:43:02.712Z,0.50
2023-03-03T02:44:02.764Z,0.50
2023-03-03T02:45:02.775Z,0.50
2023-03-03T02:46:02.747Z,0.50
2023-03-03T02:47:02.727Z,0.50
2023-03-03T02:48:02.818Z,0.50
2023-03-03T02:49:02.979Z,0.50
2023-03-03T02:50:03.056Z,0.50
2023-03-03T02:51:03.002Z,0.50
2023-03-03T02:52:03.109Z,0.50
2023-03-03T02:53:03.149Z,0.50
2023-03-03T02:54:03.216Z,0.50
2023-03-03T02:55:03.297Z,0.50
2023-03-03T02:56:03.243Z,0.50
2023-03-03T02:57:03.251Z,0.50
2023-03-03T02:58:03.290Z,0.50
2023-03-03T02:59:03.397Z,0.50
2023-03-03T03:00:03.294Z,0.50
2023-03-03T03:01:03.408Z,0.50
2023-03-03T03:02:03.512Z,0.50
2023-03-03T03:03:03.554Z,0.50
2023-03-03T03:04:03.545Z,0.50
2023-03-03T03:05:03.511Z,0.50
2023-03-03T03:06:03.518Z,0.50
2023-03-03T03:07:02.634Z,0.50
2023-03-03T03:08:02.677Z,0.40
2023-03-03T03:09:03.663Z,0.40
2023-03-03T03:10:02.666Z,0.40
2023-03-03T03:11:02.646Z,0.40
2023-03-03T03:12:02.716Z,0.40
2023-03-03T03:13:02.692Z,0.40
2023-03-03T03:14:02.612Z,0.40
2023-03-03T03:15:03.542Z,0.40
2023-03-03T03:16:02.683Z,0.40
2023-03-03T03:17:03.617Z,0.40
2023-03-03T03:18:03.548Z,0.40
2023-03-03T03:19:03.623Z,0.40
2023-03-03T03:20:03.557Z,0.40
2023-03-03T03:21:03.537Z,0.40
2023-03-03T03:22:03.479Z,0.40
2023-03-03T03:23:03.395Z,0.40
2023-03-03T03:24:03.472Z,0.40
2023-03-03T03:25:03.472Z,0.40
2023-03-03T03:26:03.620Z,0.40
2023-03-03T03:27:03.604Z,0.40
2023-03-03T03:28:03.527Z,0.40
2023-03-03T03:29:03.622Z,0.40
2023-03-03T03:30:03.551Z,0.30
2023-03-03T03:31:03.572Z,0.30
2023-03-03T03:32:03.551Z,0.30
2023-03-03T03:33:03.497Z,0.40
2023-03-03T03:34:03.574Z,0.30
2023-03-03T03:35:03.627Z,0.30
2023-03-03T03:36:03.529Z,0.30
2023-03-03T03:37:03.534Z,0.30
2023-03-03T03:38:03.572Z,0.30
2023-03-03T03:39:03.566Z,0.30
2023-03-03T03:40:03.541Z,0.30
2023-03-03T03:41:03.484Z,0.30
2023-03-03T03:42:03.377Z,0.30
2023-03-03T03:43:03.477Z,0.30
2023-03-03T03:44:03.489Z,0.30
2023-03-03T03:45:03.494Z,0.30
2023-03-03T03:46:03.512Z,0.30
2023-03-03T03:47:03.303Z,0.30
2023-03-03T03:48:03.264Z,0.30
2023-03-03T03:49:03.266Z,0.20
2023-03-03T03:50:03.311Z,0.20
2023-03-03T03:51:03.277Z,0.20
2023-03-03T03:52:03.353Z,0.20
2023-03-03T03:53:03.251Z,0.20
2023-03-03T03:54:03.325Z,0.20
2023-03-03T03:55:03.349Z,0.30
2023-03-03T03:56:03.331Z,0.30
2023-03-03T03:57:03.350Z,0.20
2023-03-03T03:58:03.437Z,0.30
2023-03-03T03:59:03.404Z,0.30
2023-03-03T04:00:03.408Z,0.30
2023-03-03T04:01:03.402Z,0.30
2023-03-03T04:02:03.457Z,0.30
2023-03-03T04:03:03.523Z,0.30
2023-03-03T04:04:03.497Z,0.30
2023-03-03T04:05:03.460Z,0.30
2023-03-03T04:06:03.410Z,0.30
2023-03-03T04:07:03.388Z,0.30
2023-03-03T04:08:03.377Z,0.30
2023-03-03T04:09:03.330Z,0.20
2023-03-03T04:10:03.332Z,0.20
2023-03-03T04:11:03.288Z,0.20
2023-03-03T04:12:03.283Z,0.20
2023-03-03T04:13:03.280Z,0.20
2023-03-03T04:14:03.324Z,0.20
2023-03-03T04:15:03.211Z,0.20
2023-03-03T04:16:03.463Z,0.20
2023-03-03T04:17:03.438Z,0.20
2023-03-03T04:18:03.505Z,0.20
2023-03-03T04:19:03.470Z,0.20
2023-03-03T04:20:03.428Z,0.20
2023-03-03T04:21:03.407Z,0.20
2023-03-03T04:22:03.541Z,0.20
2023-03-03T04:23:03.635Z,0.10
2023-03-03T04:24:02.685Z,0.20
2023-03-03T04:25:02.718Z,0.20
2023-03-03T04:26:02.662Z,0.10
2023-03-03T04:27:02.736Z,0.10
2023-03-03T04:28:05.483Z,0.10
2023-03-03T04:29:03.639Z,0.10
2023-03-03T04:30:03.620Z,0.10
2023-03-03T04:31:02.650Z,0.10
2023-03-03T04:32:02.726Z,0.10
2023-03-03T04:33:03.634Z,0.10
2023-03-03T04:34:02.687Z,0.10
2023-03-03T04:35:07.925Z,0.10
2023-03-03T04:36:02.972Z,0.10
2023-03-03T04:37:02.890Z,0.00
2023-03-03T04:38:03.148Z,0.00
2023-03-03T04:39:03.076Z,0.10
2023-03-03T04:40:03.134Z,0.00
2023-03-03T04:41:03.129Z,0.00
2023-03-03T04:42:03.086Z,0.00
2023-03-03T04:43:03.035Z,0.00
2023-03-03T04:44:03.021Z,0.00
2023-03-03T04:45:03.079Z,0.00
2023-03-03T04:46:03.080Z,0.00
2023-03-03T04:47:03.161Z,0.00
2023-03-03T04:48:03.205Z,0.00
2023-03-03T04:49:03.208Z,-0.10
2023-03-03T04:50:03.963Z,0.00
2023-03-03T04:51:03.341Z,0.00
2023-03-03T04:52:03.327Z,0.00
2023-03-03T04:53:03.255Z,-0.10
2023-03-03T04:54:03.355Z,-0.10
2023-03-03T04:55:03.394Z,-0.10
2023-03-03T04:56:03.336Z,-0.10
2023-03-03T04:57:03.378Z,-0.10
2023-03-03T04:58:03.505Z,-0.10
2023-03-03T04:59:03.566Z,-0.10
2023-03-03T05:00:03.607Z,-0.10
2023-03-03T05:01:03.605Z,-0.10
2023-03-03T05:02:03.554Z,-0.10
2023-03-03T05:03:02.661Z,-0.10
2023-03-03T05:04:02.737Z,-0.10
2023-03-03T05:05:02.860Z,-0.10
2023-03-03T05:06:02.838Z,-0.10
2023-03-03T05:07:02.795Z,-0.10
2023-03-03T05:08:02.773Z,-0.10
2023-03-03T05:09:02.686Z,-0.10
2023-03-03T05:10:02.736Z,-0.10
2023-03-03T05:11:02.667Z,-0.10
2023-03-03T05:12:02.835Z,-0.10
2023-03-03T05:13:02.837Z,-0.10
2023-03-03T05:14:02.936Z,-0.10
2023-03-03T05:15:02.809Z,-0.10
2023-03-03T05:16:02.888Z,-0.10
2023-03-03T05:17:02.789Z,-0.10
2023-03-03T05:18:02.856Z,-0.10
2023-03-03T05:19:02.770Z,-0.10
2023-03-03T05:20:02.729Z,-0.10
2023-03-03T05:21:02.770Z,-0.10
2023-03-03T05:22:02.783Z,-0.10
2023-03-03T05:23:02.735Z,-0.10
2023-03-03T05:24:02.692Z,-0.10
2023-03-03T05:25:02.888Z,-0.10
2023-03-03T05:26:02.808Z,-0.10
2023-03-03T05:27:02.719Z,-0.10
2023-03-03T05:28:02.803Z,-0.10
2023-03-03T05:29:02.671Z,-0.10
2023-03-03T05:30:02.673Z,-0.10
2023-03-03T05:31:02.791Z,-0.10
2023-03-03T05:32:02.900Z,-0.10
2023-03-03T05:33:02.858Z,-0.10
2023-03-03T05:34:02.884Z,-0.10
2023-03-03T05:35:02.818Z,-0.10
2023-03-03T05:36:02.824Z,-0.10
2023-03-03T05:37:02.837Z,-0.20
2023-03-03T05:38:05.280Z,-0.20
2023-03-03T05:39:02.876Z,-0.20
2023-03-03T05:40:02.848Z,-0.20
2023-03-03T05:41:02.931Z,-0.20
2023-03-03T05:42:02.887Z,-0.20
2023-03-03T05:43:02.852Z,-0.20
2023-03-03T05:44:02.851Z,-0.20
2023-03-03T05:45:02.836Z,-0.20
2023-03-03T05:46:02.841Z,-0.20
2023-03-03T05:47:02.854Z,-0.20
2023-03-03T05:48:02.929Z,-0.20
2023-03-03T05:49:02.888Z,-0.20
2023-03-03T05:50:02.920Z,-0.20
2023-03-03T05:51:02.971Z,-0.20
2023-03-03T05:52:02.950Z,-0.20
2023-03-03T05:53:02.863Z,-0.20
2023-03-03T05:54:02.927Z,-0.30
2023-03-03T05:55:02.908Z,-0.30
2023-03-03T05:56:02.842Z,-0.30
2023-03-03T05:57:02.754Z,-0.30
2023-03-03T05:58:02.778Z,-0.30
2023-03-03T05:59:02.698Z,-0.30
2023-03-03T06:00:02.727Z,-0.30
2023-03-03T06:01:02.784Z,-0.30
2023-03-03T06:02:02.756Z,-0.30
2023-03-03T06:03:02.668Z,-0.30
2023-03-03T06:04:02.679Z,-0.30
2023-03-03T06:05:02.771Z,-0.30
2023-03-03T06:06:02.692Z,-0.30
2023-03-03T06:07:02.623Z,-0.40
2023-03-03T06:08:02.715Z,-0.30
2023-03-03T06:09:02.721Z,-0.40
2023-03-03T06:10:02.874Z,-0.40
2023-03-03T06:11:02.865Z,-0.40
2023-03-03T06:12:02.771Z,-0.40
2023-03-03T06:13:02.784Z,-0.40
2023-03-03T06:14:02.709Z,-0.40
2023-03-03T06:15:02.747Z,-0.40
2023-03-03T06:16:02.762Z,-0.40
2023-03-03T06:17:02.766Z,-0.50
2023-03-03T06:18:02.771Z,-0.40
2023-03-03T06:19:02.820Z,-0.50
2023-03-03T06:20:02.910Z,-0.50
2023-03-03T06:21:02.809Z,-0.50
2023-03-03T06:22:02.901Z,-0.50
2023-03-03T06:23:02.906Z,-0.50
2023-03-03T06:24:03.002Z,-0.50
2023-03-03T06:25:03.192Z,-0.50
2023-03-03T06:26:03.267Z,-0.50
2023-03-03T06:27:03.391Z,-0.50
2023-03-03T06:28:03.531Z,-0.50
2023-03-03T06:29:03.555Z,-0.50
2023-03-03T06:30:03.536Z,-0.50
2023-03-03T06:31:03.457Z,-0.50
2023-03-03T06:32:03.525Z,-0.50
2023-03-03T06:33:03.360Z,-0.50
2023-03-03T06:34:03.343Z,-0.50
2023-03-03T06:35:03.470Z,-0.50
2023-03-03T06:36:05.702Z,-0.50
2023-03-03T06:37:03.346Z,-0.50
2023-03-03T06:38:03.386Z,-0.50
2023-03-03T06:39:03.458Z,-0.50
2023-03-03T06:40:03.389Z,-0.50
2023-03-03T06:41:03.477Z,-0.50
2023-03-03T06:42:03.468Z,-0.50
2023-03-03T06:43:03.467Z,-0.50
2023-03-03T06:44:03.487Z,-0.50
2023-03-03T06:45:03.443Z,-0.50
2023-03-03T06:46:03.533Z,-0.50
2023-03-03T06:47:03.433Z,-0.50
2023-03-03T06:48:03.453Z,-0.50
2023-03-03T06:49:03.462Z,-0.50
2023-03-03T06:50:03.347Z,-0.50
2023-03-03T06:51:03.494Z,-0.50
2023-03-03T06:52:03.478Z,-0.50
2023-03-03T06:53:03.448Z,-0.50
2023-03-03T06:54:03.396Z,-0.50
2023-03-03T06:55:03.454Z,-0.50
2023-03-03T06:56:03.510Z,-0.50
2023-03-03T06:57:03.561Z,-0.50
2023-03-03T06:58:03.562Z,-0.50
2023-03-03T06:59:03.608Z,-0.40
2023-03-03T07:00:03.652Z,-0.40
2023-03-03T07:01:03.596Z,-0.40
2023-03-03T07:02:03.562Z,-0.40
2023-03-03T07:03:03.538Z,-0.40
2023-03-03T07:04:03.478Z,-0.40
2023-03-03T07:05:03.374Z,-0.40
2023-03-03T07:06:05.852Z,-0.40
2023-03-03T07:07:03.384Z,-0.40
2023-03-03T07:08:03.326Z,-0.40
2023-03-03T07:09:04.546Z,-0.40
2023-03-03T07:10:03.284Z,-0.30
2023-03-03T07:11:03.366Z,-0.30
2023-03-03T07:12:03.423Z,-0.30
2023-03-03T07:13:03.474Z,-0.30
2023-03-03T07:14:03.339Z,-0.30
2023-03-03T07:15:03.422Z,-0.40
2023-03-03T07:16:03.518Z,-0.40
2023-03-03T07:17:03.502Z,-0.40
2023-03-03T07:18:03.470Z,-0.30
2023-03-03T07:19:03.618Z,-0.30
2023-03-03T07:20:03.563Z,-0.30
2023-03-03T07:21:03.610Z,-0.30
2023-03-03T07:22:03.586Z,-0.40
2023-03-03T07:23:03.517Z,-0.40
2023-03-03T07:24:03.666Z,-0.40
2023-03-03T07:25:03.598Z,-0.40
2023-03-03T07:26:03.493Z,-0.40
2023-03-03T07:27:03.562Z,-0.40
2023-03-03T07:28:03.517Z,-0.40
2023-03-03T07:29:03.596Z,-0.40
2023-03-03T07:30:03.549Z,-0.40
2023-03-03T07:31:03.641Z,-0.40
2023-03-03T07:32:03.575Z,-0.40
2023-03-03T07:33:03.622Z,-0.40
2023-03-03T07:34:02.715Z,-0.40
2023-03-03T07:35:02.828Z,-0.30
2023-03-03T07:36:02.851Z,-0.30
2023-03-03T07:37:02.909Z,-0.30
2023-03-03T07:38:02.835Z,-0.30
2023-03-03T07:39:02.848Z,-0.30
2023-03-03T07:40:02.972Z,-0.30
2023-03-03T07:41:02.876Z,-0.30
2023-03-03T07:42:02.904Z,-0.30
2023-03-03T07:43:02.874Z,-0.30
2023-03-03T07:44:02.859Z,-0.30
2023-03-03T07:45:02.951Z,-0.30
2023-03-03T07:46:03.004Z,-0.30
2023-03-03T07:47:02.924Z,-0.30
2023-03-03T07:48:02.909Z,-0.30
2023-03-03T07:49:02.966Z,-0.30
2023-03-03T07:50:03.005Z,-0.30
2023-03-03T07:51:03.099Z,-0.30
2023-03-03T07:52:03.039Z,-0.30
2023-03-03T07:53:03.111Z,-0.30
2023-03-03T07:54:03.155Z,-0.30
2023-03-03T07:55:03.238Z,-0.30
2023-03-03T07:56:03.156Z,-0.30
2023-03-03T07:57:03.034Z,-0.30
2023-03-03T07:58:03.588Z,-0.30
2023-03-03T07:59:03.288Z,-0.30
2023-03-03T08:00:02.817Z,-0.30
2023-03-03T08:01:02.875Z,-0.30
2023-03-03T08:02:03.111Z,-0.30
2023-03-03T08:03:03.046Z,-0.30
2023-03-03T08:04:03.004Z,-0.30
2023-03-03T08:05:05.215Z,-0.30
2023-03-03T08:06:02.873Z,-0.30
2023-03-03T08:07:02.870Z,-0.40
2023-03-03T08:08:03.029Z,-0.30
2023-03-03T08:09:03.106Z,-0.40
2023-03-03T08:10:03.122Z,-0.30
2023-03-03T08:11:03.242Z,-0.30
2023-03-03T08:12:03.355Z,-0.30
2023-03-03T08:13:03.414Z,-0.30
2023-03-03T08:14:03.430Z,-0.40
2023-03-03T08:15:03.399Z,-0.40
2023-03-03T08:16:03.579Z,-0.40
2023-03-03T08:17:03.565Z,-0.40
2023-03-03T08:18:03.697Z,-0.40
2023-03-03T08:19:03.605Z,-0.40
2023-03-03T08:20:02.620Z,-0.40
2023-03-03T08:21:02.730Z,-0.40
2023-03-03T08:22:02.704Z,-0.40
2023-03-03T08:23:02.683Z,-0.50
2023-03-03T08:24:02.775Z,-0.40
2023-03-03T08:25:02.784Z,-0.40
2023-03-03T08:26:02.671Z,-0.40
2023-03-03T08:27:02.694Z,-0.40
2023-03-03T08:28:02.674Z,-0.40
2023-03-03T08:29:02.802Z,-0.40
2023-03-03T08:30:02.736Z,-0.40
2023-03-03T08:31:13.145Z,-0.40
2023-03-03T08:32:02.784Z,-0.40
2023-03-03T08:33:02.603Z,-0.40
2023-03-03T08:34:02.729Z,-0.50
2023-03-03T08:35:02.823Z,-0.50
2023-03-03T08:36:02.757Z,-0.50
2023-03-03T08:37:02.859Z,-0.50
2023-03-03T08:38:02.921Z,-0.50
2023-03-03T08:39:02.935Z,-0.50
2023-03-03T08:40:02.849Z,-0.50
2023-03-03T08:41:02.848Z,-0.50
2023-03-03T08:42:02.985Z,-0.50
2023-03-03T08:43:02.918Z,-0.50
2023-03-03T08:44:02.866Z,-0.40
2023-03-03T08:45:02.883Z,-0.40
2023-03-03T08:46:02.870Z,-0.40
2023-03-03T08:47:02.956Z,-0.40
2023-03-03T08:48:05.601Z,-0.40
2023-03-03T08:49:02.895Z,-0.40
2023-03-03T08:50:03.074Z,-0.40
2023-03-03T08:51:03.029Z,-0.40
2023-03-03T08:52:03.062Z,-0.40
2023-03-03T08:53:03.142Z,-0.30
2023-03-03T08:54:03.068Z,-0.30
2023-03-03T08:55:03.055Z,-0.30
2023-03-03T08:56:03.126Z,-0.30
2023-03-03T08:57:03.029Z,-0.30
2023-03-03T08:58:02.964Z,-0.30
2023-03-03T08:59:03.369Z,-0.30
2023-03-03T09:00:02.954Z,-0.30
2023-03-03T09:01:02.926Z,-0.30
2023-03-03T09:02:03.019Z,-0.30
2023-03-03T09:03:02.894Z,-0.30
2023-03-03T09:04:02.860Z,-0.30
2023-03-03T09:05:03.052Z,-0.30
2023-03-03T09:06:03.031Z,-0.30
2023-03-03T09:07:03.031Z,-0.30
2023-03-03T09:08:03.074Z,-0.30
2023-03-03T09:09:03.097Z,-0.30
2023-03-03T09:10:03.098Z,-0.30
2023-03-03T09:11:03.161Z,-0.30
2023-03-03T09:12:03.316Z,-0.30
2023-03-03T09:13:03.311Z,-0.30
2023-03-03T09:14:03.380Z,-0.30
2023-03-03T09:15:03.330Z,-0.30
2023-03-03T09:16:03.518Z,-0.30
2023-03-03T09:17:03.753Z,-0.30
2023-03-03T09:18:03.518Z,-0.30
2023-03-03T09:19:03.575Z,-0.30
2023-03-03T09:20:02.671Z,-0.30
2023-03-03T09:21:02.649Z,-0.30
2023-03-03T09:22:02.627Z,-0.30
2023-03-03T09:23:02.666Z,-0.30
2023-03-03T09:24:02.655Z,-0.30
2023-03-03T09:25:02.626Z,-0.30
2023-03-03T09:26:02.709Z,-0.30
2023-03-03T09:27:02.648Z,-0.30
2023-03-03T09:28:02.663Z,-0.30
2023-03-03T09:29:02.808Z,-0.30
2023-03-03T09:30:02.750Z,-0.30
2023-03-03T09:31:02.797Z,-0.30
2023-03-03T09:32:02.876Z,-0.30
2023-03-03T09:33:02.646Z,-0.30
2023-03-03T09:34:02.755Z,-0.30
2023-03-03T09:35:02.720Z,-0.30
2023-03-03T09:36:02.747Z,-0.30
2023-03-03T09:37:02.770Z,-0.30
2023-03-03T09:38:02.745Z,-0.30
2023-03-03T09:39:02.802Z,-0.30
2023-03-03T09:40:02.880Z,-0.30
2023-03-03T09:41:02.828Z,-0.30
2023-03-03T09:42:02.806Z,-0.30
2023-03-03T09:43:02.777Z,-0.30
2023-03-03T09:44:02.903Z,-0.30
2023-03-03T09:45:02.864Z,-0.30
2023-03-03T09:46:02.878Z,-0.30
2023-03-03T09:47:02.992Z,-0.20
2023-03-03T09:48:02.906Z,-0.20
2023-03-03T09:49:02.868Z,-0.20
2023-03-03T09:50:03.039Z,-0.20
2023-03-03T09:51:02.871Z,-0.20
2023-03-03T09:52:02.902Z,-0.20
2023-03-03T09:53:02.858Z,-0.20
2023-03-03T09:54:02.818Z,-0.20
2023-03-03T09:55:02.707Z,-0.20
2023-03-03T09:56:02.839Z,-0.10
2023-03-03T09:57:02.773Z,-0.20
2023-03-03T09:58:10.319Z,-0.10
2023-03-03T09:59:02.776Z,-0.10
2023-03-03T10:00:02.731Z,-0.10
2023-03-03T10:01:02.752Z,-0.10
2023-03-03T10:02:04.418Z,-0.10
2023-03-03T10:03:02.677Z,0.00
2023-03-03T10:04:02.653Z,0.00
2023-03-03T10:05:02.678Z,0.00
2023-03-03T10:06:02.753Z,0.00
2023-03-03T10:07:02.725Z,0.00
2023-03-03T10:08:02.766Z,0.00
2023-03-03T10:09:02.719Z,0.00
2023-03-03T10:10:02.693Z,0.00
2023-03-03T10:11:02.803Z,0.00
2023-03-03T10:12:02.745Z,0.00
2023-03-03T10:13:02.893Z,0.00
2023-03-03T10:14:02.895Z,0.00
2023-03-03T10:15:02.810Z,0.00
2023-03-03T10:16:02.778Z,0.10
2023-03-03T10:17:02.910Z,0.10
2023-03-03T10:18:02.934Z,0.10
2023-03-03T10:19:02.870Z,0.10
2023-03-03T10:20:02.859Z,0.10
2023-03-03T10:21:02.777Z,0.10
2023-03-03T10:22:02.916Z,0.10
2023-03-03T10:23:03.017Z,0.10
2023-03-03T10:24:03.130Z,0.10
2023-03-03T10:25:03.105Z,0.20
2023-03-03T10:26:03.240Z,0.20
2023-03-03T10:27:12.827Z,0.20
2023-03-03T10:28:03.209Z,0.20
2023-03-03T10:29:03.210Z,0.20
2023-03-03T10:30:03.371Z,0.20
2023-03-03T10:31:08.152Z,0.20
2023-03-03T10:32:03.536Z,0.20
2023-03-03T10:33:03.486Z,0.20
2023-03-03T10:34:03.470Z,0.20
2023-03-03T10:35:03.537Z,0.20
2023-03-03T10:36:07.209Z,0.20
2023-03-03T10:37:03.543Z,0.20
2023-03-03T10:38:03.593Z,0.10
2023-03-03T10:39:03.583Z,0.10
2023-03-03T10:40:03.610Z,0.10
2023-03-03T10:41:03.510Z,0.10
2023-03-03T10:42:03.564Z,0.20
2023-03-03T10:43:03.568Z,0.20
2023-03-03T10:44:02.945Z,0.20
2023-03-03T10:45:03.096Z,0.20
2023-03-03T10:46:03.305Z,0.20
2023-03-03T10:47:03.167Z,0.20
2023-03-03T10:48:03.138Z,0.20
2023-03-03T10:49:03.139Z,0.20
2023-03-03T10:50:03.137Z,0.20
2023-03-03T10:51:03.275Z,0.20
2023-03-03T10:52:03.650Z,0.10
2023-03-03T10:53:03.602Z,0.20
2023-03-03T10:54:03.577Z,0.10
2023-03-03T10:55:03.604Z,0.20
2023-03-03T10:56:03.591Z,0.20
2023-03-03T10:57:02.654Z,0.20
2023-03-03T10:58:02.701Z,0.10
2023-03-03T10:59:02.772Z,0.20
2023-03-03T11:00:02.672Z,0.10
2023-03-03T11:01:02.784Z,0.10
2023-03-03T11:02:02.860Z,0.20
2023-03-03T11:03:02.849Z,0.20
2023-03-03T11:04:02.999Z,0.20
2023-03-03T11:05:03.207Z,0.20
2023-03-03T11:06:02.998Z,0.20
2023-03-03T11:07:05.845Z,0.20
2023-03-03T11:08:03.302Z,0.20
2023-03-03T11:09:02.969Z,0.20
2023-03-03T11:10:03.016Z,0.20
2023-03-03T11:11:02.898Z,0.20
2023-03-03T11:12:02.914Z,0.10
2023-03-03T11:13:02.991Z,0.10
2023-03-03T11:14:03.192Z,0.10
2023-03-03T11:15:03.256Z,0.10
2023-03-03T11:16:02.950Z,0.10
2023-03-03T11:17:03.089Z,0.10
2023-03-03T11:18:02.971Z,0.10
2023-03-03T11:19:02.983Z,0.10
2023-03-03T11:20:03.032Z,0.10
2023-03-03T11:21:03.010Z,0.10
2023-03-03T11:22:03.086Z,0.10
2023-03-03T11:23:03.133Z,0.00
2023-03-03T11:24:03.192Z,0.10
2023-03-03T11:25:03.101Z,0.00
2023-03-03T11:26:03.061Z,0.00
2023-03-03T11:27:03.532Z,0.00
2023-03-03T11:28:03.096Z,0.00
2023-03-03T11:29:03.198Z,0.00
2023-03-03T11:30:03.221Z,0.00
2023-03-03T11:31:03.149Z,0.00
2023-03-03T11:32:03.289Z,0.00
2023-03-03T11:33:03.280Z,0.00
2023-03-03T11:34:03.311Z,0.00
2023-03-03T11:35:03.395Z,0.00
2023-03-03T11:36:03.505Z,0.00
2023-03-03T11:37:03.406Z,0.00
2023-03-03T11:38:03.497Z,0.00
2023-03-03T11:39:03.565Z,0.00
2023-03-03T11:40:03.641Z,0.00
2023-03-03T11:41:03.651Z,0.00
2023-03-03T11:42:03.620Z,0.00
2023-03-03T11:43:03.540Z,0.10
2023-03-03T11:44:02.702Z,0.10
2023-03-03T11:45:02.700Z,0.00
2023-03-03T11:46:02.790Z,0.00
2023-03-03T11:47:02.821Z,0.00
2023-03-03T11:48:02.912Z,0.00
2023-03-03T11:49:02.821Z,0.10
2023-03-03T11:50:02.864Z,0.10
2023-03-03T11:51:02.779Z,0.00
2023-03-03T11:52:02.775Z,0.00
2023-03-03T11:53:02.791Z,0.10
2023-03-03T11:54:02.772Z,0.10
2023-03-03T11:55:02.764Z,0.10
2023-03-03T11:56:02.896Z,0.10
2023-03-03T11:57:02.870Z,0.10
2023-03-03T11:58:03.001Z,0.10
2023-03-03T11:59:02.906Z,0.10
2023-03-03T12:00:02.904Z,0.10
2023-03-03T12:01:04.110Z,0.20
2023-03-03T12:02:02.815Z,0.20
2023-03-03T12:03:02.842Z,0.10
2023-03-03T12:04:03.264Z,0.20
2023-03-03T12:05:03.169Z,0.20
2023-03-03T12:06:03.151Z,0.20
2023-03-03T12:07:09.664Z,0.20
2023-03-03T12:08:03.083Z,0.20
2023-03-03T12:09:03.165Z,0.20
2023-03-03T12:10:03.187Z,0.20
2023-03-03T12:11:03.177Z,0.20
2023-03-03T12:12:03.110Z,0.20
2023-03-03T12:13:03.317Z,0.20
2023-03-03T12:14:03.403Z,0.20
2023-03-03T12:15:03.380Z,0.20
2023-03-03T12:16:03.463Z,0.20
2023-03-03T12:17:03.468Z,0.20
2023-03-03T12:18:03.444Z,0.20
2023-03-03T12:19:03.440Z,0.20
2023-03-03T12:20:03.386Z,0.20
2023-03-03T12:21:03.452Z,0.20
2023-03-03T12:22:03.439Z,0.20
2023-03-03T12:23:06.678Z,0.20
2023-03-03T12:24:04.725Z,0.20
2023-03-03T12:25:03.579Z,0.20
2023-03-03T12:26:03.672Z,0.20
2023-03-03T12:27:02.838Z,0.30
2023-03-03T12:28:02.725Z,0.30
2023-03-03T12:29:02.792Z,0.30
2023-03-03T12:30:05.142Z,0.30
2023-03-03T12:31:03.223Z,0.30
2023-03-03T12:32:03.122Z,0.30
2023-03-03T12:33:03.085Z,0.30
2023-03-03T12:34:03.140Z,0.40
2023-03-03T12:35:03.118Z,0.40
2023-03-03T12:36:03.144Z,0.40
2023-03-03T12:37:03.145Z,0.40
2023-03-03T12:38:03.210Z,0.40
2023-03-03T12:39:03.240Z,0.40
2023-03-03T12:40:03.224Z,0.40
2023-03-03T12:41:03.418Z,0.40
2023-03-03T12:42:05.221Z,0.40
2023-03-03T12:43:03.421Z,0.40
2023-03-03T12:44:03.506Z,0.30
2023-03-03T12:45:03.475Z,0.40
2023-03-03T12:46:03.525Z,0.40
2023-03-03T12:47:03.501Z,0.30
2023-03-03T12:48:03.464Z,0.40
2023-03-03T12:49:03.486Z,0.40
2023-03-03T12:50:07.732Z,0.40
2023-03-03T12:51:03.373Z,0.40
2023-03-03T12:52:03.394Z,0.40
2023-03-03T12:53:03.426Z,0.40
2023-03-03T12:54:03.323Z,0.40
2023-03-03T12:55:03.362Z,0.40
2023-03-03T12:56:03.363Z,0.40
2023-03-03T12:57:03.408Z,0.40
2023-03-03T12:58:03.345Z,0.40
2023-03-03T12:59:03.466Z,0.40
2023-03-03T13:00:03.531Z,0.40
2023-03-03T13:01:03.597Z,0.40
2023-03-03T13:02:02.756Z,0.40
2023-03-03T13:03:02.874Z,0.40
2023-03-03T13:04:03.386Z,0.40
2023-03-03T13:05:03.325Z,0.50
2023-03-03T13:06:03.454Z,0.50
2023-03-03T13:07:03.525Z,0.50
2023-03-03T13:08:03.502Z,0.50